Time;durP1;ratioP1;P1;durP2;ratioP2;P2;SDS_P1;SDS_P2;PMS_P1;PMS_P2;Temp;Humidity;BMP_temperature;BMP_pressure;BME280_temperature;BME280_humidity;BME280_pressure;Samples;Min_cycle;Max_cycle;Signal;HPM_P1;HPM_P2
2022/07/17 00:02:12;;;;;;;6.25;4.53;;;;;;;;;;5023761;28;20033;-57
2022/07/17 00:04:37;;;;;;;5.88;4.82;;;;;;;;;;5024901;28;20395;-57
2022/07/17 00:07:03;;;;;;;7.38;5.30;;;;;;;;;;5022230;28;20087;-57
2022/07/17 00:09:28;;;;;;;10.25;5.50;;;;;;;;;;5028538;28;20026;-57
2022/07/17 00:11:54;;;;;;;11.57;4.97;;;;;;;;;;5024217;28;20116;-56
2022/07/17 00:14:19;;;;;;;1127.53;139.93;;;;;;;;;;5027896;28;20037;-57
2022/07/17 00:16:44;;;;;;;5.78;4.82;;;;;;;;;;5021304;28;20025;-56
2022/07/17 00:19:10;;;;;;;7.38;5.05;;;;;;;;;;5021280;28;20037;-56
2022/07/17 00:21:35;;;;;;;6.78;5.47;;;;;;;;;;5027015;28;20601;-57
2022/07/17 00:24:01;;;;;;;6.68;5.18;;;;;;;;;;5028288;28;20051;-57
2022/07/17 00:26:26;;;;;;;8.35;5.13;;;;;;;;;;5027419;28;20481;-57
2022/07/17 00:28:52;;;;;;;6.05;4.78;;;;;;;;;;5026437;28;20025;-57
2022/07/17 00:31:17;;;;;;;7.78;4.70;;;;;;;;;;5024352;28;20467;-57
2022/07/17 00:33:42;;;;;;;6.22;4.47;;;;;;;;;;5025509;28;20040;-57
2022/07/17 00:36:08;;;;;;;6.53;5.00;;;;;;;;;;5023201;28;20033;-57
2022/07/17 00:38:33;;;;;;;6.57;5.03;;;;;;;;;;5025586;28;20051;-57
2022/07/17 00:40:59;;;;;;;8.20;4.88;;;;;;;;;;5026095;28;20083;-57
2022/07/17 00:43:26;;;;;;;8.25;5.25;;;;;;;;;;5023667;28;20079;-57
2022/07/17 00:45:59;;;;;;;8.68;5.13;;;;;;;;;;5022359;28;20519;-56
2022/07/17 00:48:25;;;;;;;8.65;5.32;;;;;;;;;;5019334;28;20064;-56
2022/07/17 00:50:50;;;;;;;7.25;5.00;;;;;;;;;;5026594;28;20029;-56
2022/07/17 00:53:16;;;;;;;7.57;4.95;;;;;;;;;;5024703;28;20103;-56
2022/07/17 00:55:42;;;;;;;6.75;5.65;;;;;;;;;;5023901;28;20021;-57
2022/07/17 00:58:09;;;;;;;7.30;5.10;;;;;;;;;;5023764;28;20514;-56
2022/07/17 01:00:35;;;;;;;5.80;4.78;;;;;;;;;;5023454;28;20021;-56
2022/07/17 01:03:01;;;;;;;7.97;5.30;;;;;;;;;;5022765;28;20025;-57
2022/07/17 01:05:27;;;;;;;7.30;5.07;;;;;;;;;;5019289;28;20025;-56
2022/07/17 01:07:52;;;;;;;10.10;5.63;;;;;;;;;;5018242;28;20369;-56
2022/07/17 01:10:19;;;;;;;9.48;5.28;;;;;;;;;;5024749;28;20028;-57
2022/07/17 01:12:45;;;;;;;6.80;5.13;;;;;;;;;;5018397;28;20033;-56
2022/07/17 01:15:11;;;;;;;8.13;5.65;;;;;;;;;;5024052;28;20523;-56
2022/07/17 01:17:37;;;;;;;8.27;5.70;;;;;;;;;;5020184;28;20064;-56
2022/07/17 01:20:05;;;;;;;9.07;5.70;;;;;;;;;;5025846;28;20575;-56
2022/07/17 01:22:31;;;;;;;8.82;5.60;;;;;;;;;;5027273;28;20428;-57
2022/07/17 01:24:57;;;;;;;7.82;5.88;;;;;;;;;;5026485;28;20034;-57
2022/07/17 01:27:22;;;;;;;6.93;5.25;;;;;;;;;;5026318;28;20042;-56
2022/07/17 01:29:47;;;;;;;8.60;5.57;;;;;;;;;;5025964;28;20483;-57
2022/07/17 01:32:13;;;;;;;7.68;5.80;;;;;;;;;;5024405;28;20060;-56
2022/07/17 01:34:38;;;;;;;7.70;6.20;;;;;;;;;;5019752;28;20029;-57
2022/07/17 01:37:04;;;;;;;9.13;6.70;;;;;;;;;;5024484;28;20033;-56
2022/07/17 01:42:13;;;;;;;8.63;6.05;;;;;;;;;;5024486;28;20510;-57
2022/07/17 01:44:39;;;;;;;10.93;6.32;;;;;;;;;;5027615;28;20029;-57
2022/07/17 01:47:04;;;;;;;9.60;6.32;;;;;;;;;;5028949;28;20042;-57
2022/07/17 01:49:30;;;;;;;7.60;6.32;;;;;;;;;;5028629;28;20032;-56
2022/07/17 01:51:59;;;;;;;8.80;6.60;;;;;;;;;;5031613;28;20033;-56
2022/07/17 01:54:29;;;;;;;9.85;7.22;;;;;;;;;;5028040;28;20147;-55
2022/07/17 01:56:54;;;;;;;9.85;6.53;;;;;;;;;;5026112;28;20036;-56
2022/07/17 01:59:20;;;;;;;11.18;6.60;;;;;;;;;;5023129;28;20026;-56
2022/07/17 02:01:45;;;;;;;8.38;6.72;;;;;;;;;;5027329;28;20021;-56
2022/07/17 02:04:10;;;;;;;10.63;6.07;;;;;;;;;;5024664;28;20044;-56
2022/07/17 02:06:36;;;;;;;8.50;6.60;;;;;;;;;;5027691;28;20123;-56
2022/07/17 02:09:02;;;;;;;7.85;6.53;;;;;;;;;;5026087;28;20029;-56
2022/07/17 02:11:27;;;;;;;10.45;6.97;;;;;;;;;;5026253;28;20021;-57
2022/07/17 02:13:53;;;;;;;9.60;7.00;;;;;;;;;;5023727;28;20393;-56
2022/07/17 02:16:18;;;;;;;13.07;7.03;;;;;;;;;;5024924;28;20025;-57
2022/07/17 02:18:44;;;;;;;10.20;6.88;;;;;;;;;;5027843;28;20048;-56
2022/07/17 02:21:09;;;;;;;8.18;5.95;;;;;;;;;;5029359;28;20053;-56
2022/07/17 02:23:35;;;;;;;8.57;6.45;;;;;;;;;;5030254;28;20402;-56
2022/07/17 02:26:00;;;;;;;7.68;6.07;;;;;;;;;;5029794;28;20749;-57
2022/07/17 02:28:26;;;;;;;12.13;6.70;;;;;;;;;;5027452;28;20083;-57
2022/07/17 02:30:51;;;;;;;8.40;7.57;;;;;;;;;;5026822;28;20041;-57
2022/07/17 02:33:17;;;;;;;1002.75;398.60;;;;;;;;;;5027863;28;20064;-56
2022/07/17 02:35:42;;;;;;;4.15;3.95;;;;;;;;;;5028029;28;20420;-57
2022/07/17 02:38:07;;;;;;;4.97;2.60;;;;;;;;;;5025229;28;20033;-57
2022/07/17 02:40:33;;;;;;;4.65;4.03;;;;;;;;;;5026878;28;20548;-56
2022/07/17 02:42:58;;;;;;;1999.90;999.90;;;;;;;;;;5030402;28;20029;-57
2022/07/17 02:45:26;;;;;;;1999.90;999.90;;;;;;;;;;5024529;28;20140;-57
2022/07/17 02:47:54;;;;;;;1999.90;999.90;;;;;;;;;;5028067;28;20032;-56
2022/07/17 02:50:20;;;;;;;1999.90;999.90;;;;;;;;;;5024353;28;20053;-56
2022/07/17 02:52:46;;;;;;;1999.90;999.90;;;;;;;;;;5023993;28;20052;-57
2022/07/17 02:55:11;;;;;;;1999.90;999.90;;;;;;;;;;5024422;28;20487;-56
2022/07/17 02:57:38;;;;;;;1999.90;999.90;;;;;;;;;;5023866;28;20489;-56
2022/07/17 03:00:09;;;;;;;1999.90;999.90;;;;;;;;;;5025130;28;20483;-56
2022/07/17 03:02:35;;;;;;;1999.90;999.90;;;;;;;;;;5025257;28;20084;-56
2022/07/17 03:05:00;;;;;;;1999.90;999.90;;;;;;;;;;5023028;28;20341;-56
2022/07/17 03:07:26;;;;;;;1999.90;999.90;;;;;;;;;;5025104;28;20033;-56
2022/07/17 03:09:51;;;;;;;1999.90;999.90;;;;;;;;;;5022859;28;20030;-57
2022/07/17 03:12:17;;;;;;;1999.90;999.90;;;;;;;;;;5023119;28;20030;-56
2022/07/17 03:14:42;;;;;;;1999.90;999.90;;;;;;;;;;5028442;28;20181;-56
2022/07/17 03:17:08;;;;;;;1999.90;999.90;;;;;;;;;;5021785;28;20132;-56
2022/07/17 03:19:33;;;;;;;1999.90;999.90;;;;;;;;;;5028408;28;20023;-57
2022/07/17 03:21:59;;;;;;;1999.90;999.90;;;;;;;;;;5027250;28;20029;-57
2022/07/17 03:24:24;;;;;;;1999.90;999.90;;;;;;;;;;5029759;28;20033;-57
2022/07/17 03:26:50;;;;;;;1999.90;999.90;;;;;;;;;;5027933;28;20091;-57
2022/07/17 03:29:17;;;;;;;1999.90;999.90;;;;;;;;;;5024975;28;20041;-57
2022/07/17 03:31:43;;;;;;;1999.90;999.90;;;;;;;;;;5027097;28;20017;-57
2022/07/17 03:34:08;;;;;;;1999.90;999.90;;;;;;;;;;5028722;28;20108;-57
2022/07/17 03:36:34;;;;;;;1999.90;999.90;;;;;;;;;;5026800;28;20104;-56
2022/07/17 03:38:59;;;;;;;1999.90;999.90;;;;;;;;;;5024662;28;20155;-57
2022/07/17 03:41:25;;;;;;;1999.90;999.90;;;;;;;;;;5026534;28;20040;-57
2022/07/17 03:43:51;;;;;;;1999.90;999.90;;;;;;;;;;5026288;28;20036;-56
2022/07/17 03:46:16;;;;;;;1999.90;999.90;;;;;;;;;;5024432;28;20034;-56
2022/07/17 03:48:42;;;;;;;1999.90;999.90;;;;;;;;;;5025368;28;20033;-56
2022/07/17 03:51:07;;;;;;;1999.90;999.90;;;;;;;;;;5024790;28;20369;-56
2022/07/17 03:53:33;;;;;;;1999.90;999.90;;;;;;;;;;5028578;28;20055;-56
2022/07/17 03:55:58;;;;;;;1999.90;999.90;;;;;;;;;;5023043;28;20091;-56
2022/07/17 03:58:23;;;;;;;1999.90;999.90;;;;;;;;;;5023795;28;20033;-57
2022/07/17 04:00:49;;;;;;;1999.90;999.90;;;;;;;;;;5020643;28;20365;-56
2022/07/17 04:03:14;;;;;;;1999.90;999.90;;;;;;;;;;5021265;28;20026;-56
2022/07/17 04:05:40;;;;;;;1999.90;999.90;;;;;;;;;;5023275;28;20028;-56
2022/07/17 04:08:05;;;;;;;1999.90;999.90;;;;;;;;;;5028269;28;20047;-56
2022/07/17 04:10:30;;;;;;;1999.90;999.90;;;;;;;;;;5024430;28;20045;-56
2022/07/17 04:12:56;;;;;;;1999.90;999.90;;;;;;;;;;5022486;28;20480;-57
2022/07/17 04:18:05;;;;;;;1999.90;999.90;;;;;;;;;;5024939;28;20496;-57
2022/07/17 04:20:30;;;;;;;1999.90;999.90;;;;;;;;;;5028141;28;20112;-56
2022/07/17 04:22:57;;;;;;;1999.90;999.90;;;;;;;;;;5027574;28;20025;-57
2022/07/17 04:25:23;;;;;;;1999.90;999.90;;;;;;;;;;5025516;28;20096;-57
2022/07/17 04:27:48;;;;;;;1999.90;999.90;;;;;;;;;;5026283;28;20079;-57
2022/07/17 04:30:13;;;;;;;1999.90;999.90;;;;;;;;;;5023635;28;20810;-56
2022/07/17 04:32:39;;;;;;;1999.90;999.90;;;;;;;;;;5024099;28;20083;-56
2022/07/17 04:35:05;;;;;;;1999.90;999.90;;;;;;;;;;5027752;28;20491;-57
2022/07/17 04:37:30;;;;;;;1999.90;999.90;;;;;;;;;;5025480;28;20021;-56
2022/07/17 04:39:56;;;;;;;1999.90;999.90;;;;;;;;;;5023377;28;20032;-57
2022/07/17 04:42:21;;;;;;;1999.90;999.90;;;;;;;;;;5021631;28;20550;-57
2022/07/17 04:44:46;;;;;;;1999.90;999.90;;;;;;;;;;5027048;28;20021;-56
2022/07/17 04:47:12;;;;;;;1999.90;999.90;;;;;;;;;;5023860;28;20094;-57
2022/07/17 04:49:37;;;;;;;1999.90;999.90;;;;;;;;;;5023673;28;20037;-56
2022/07/17 04:52:03;;;;;;;1999.90;999.90;;;;;;;;;;5019732;28;20079;-56
2022/07/17 04:54:28;;;;;;;1999.90;999.90;;;;;;;;;;5026682;28;20380;-57
2022/07/17 04:56:53;;;;;;;1999.90;999.90;;;;;;;;;;5028871;28;20116;-56
2022/07/17 04:59:19;;;;;;;1999.90;999.90;;;;;;;;;;5021610;28;20034;-57
2022/07/17 05:01:44;;;;;;;1999.90;999.90;;;;;;;;;;5019246;28;20025;-57
2022/07/17 05:04:10;;;;;;;1999.90;999.90;;;;;;;;;;5022600;28;20030;-59
2022/07/17 05:06:35;;;;;;;1999.90;999.90;;;;;;;;;;5026135;28;20136;-59
2022/07/17 05:09:00;;;;;;;1999.90;999.90;;;;;;;;;;5027175;28;20025;-60
2022/07/17 05:11:26;;;;;;;1999.90;999.90;;;;;;;;;;5018128;28;20034;-60
2022/07/17 05:13:51;;;;;;;1999.90;999.90;;;;;;;;;;5019748;28;20124;-59
2022/07/17 05:16:17;;;;;;;1999.90;999.90;;;;;;;;;;5028230;28;20040;-60
2022/07/17 05:18:42;;;;;;;1999.90;999.90;;;;;;;;;;5030267;28;20039;-59
2022/07/17 05:21:07;;;;;;;1999.90;999.90;;;;;;;;;;5030828;28;20060;-60
2022/07/17 05:23:33;;;;;;;1999.90;999.90;;;;;;;;;;5029928;28;20018;-59
2022/07/17 05:25:58;;;;;;;1999.90;999.90;;;;;;;;;;5028890;28;20033;-60
2022/07/17 05:28:24;;;;;;;1999.90;999.90;;;;;;;;;;5028782;28;20383;-59
2022/07/17 05:30:49;;;;;;;1999.90;999.90;;;;;;;;;;5030534;28;20486;-59
2022/07/17 05:33:14;;;;;;;1999.90;999.90;;;;;;;;;;5030068;28;20095;-59
2022/07/17 05:35:40;;;;;;;1999.90;999.90;;;;;;;;;;5028443;28;20116;-60
2022/07/17 05:38:06;;;;;;;1999.90;999.90;;;;;;;;;;5029120;28;20033;-59
2022/07/17 05:40:31;;;;;;;1999.90;999.90;;;;;;;;;;5028386;28;20029;-59
2022/07/17 05:42:58;;;;;;;1999.90;999.90;;;;;;;;;;5026780;28;20628;-59
2022/07/17 05:45:23;;;;;;;1999.90;999.90;;;;;;;;;;5026509;28;20034;-59
2022/07/17 05:47:48;;;;;;;1999.90;999.90;;;;;;;;;;5030398;28;20029;-59
2022/07/17 05:50:14;;;;;;;1999.90;999.90;;;;;;;;;;5028563;28;20037;-59
2022/07/17 05:52:40;;;;;;;1999.90;999.90;;;;;;;;;;5025110;28;20051;-60
2022/07/17 05:55:05;;;;;;;1999.90;999.90;;;;;;;;;;5023971;28;20092;-60
2022/07/17 05:57:31;;;;;;;1999.90;999.90;;;;;;;;;;5032082;28;20061;-60
2022/07/17 05:59:56;;;;;;;1999.90;999.90;;;;;;;;;;5027473;28;20029;-59
2022/07/17 06:02:21;;;;;;;1999.90;999.90;;;;;;;;;;5024639;28;20033;-60
2022/07/17 06:04:47;;;;;;;1999.90;999.90;;;;;;;;;;5022681;28;20071;-59
2022/07/17 06:07:12;;;;;;;1999.90;999.90;;;;;;;;;;5028289;28;20088;-59
2022/07/17 06:09:38;;;;;;;1999.90;999.90;;;;;;;;;;5027733;28;20025;-59
2022/07/17 06:12:03;;;;;;;1999.90;999.90;;;;;;;;;;5029249;28;20403;-59
2022/07/17 06:14:28;;;;;;;1999.90;999.90;;;;;;;;;;5025769;28;20084;-59
2022/07/17 06:16:54;;;;;;;1999.90;999.90;;;;;;;;;;5026689;28;20033;-59
2022/07/17 06:19:19;;;;;;;1999.90;999.90;;;;;;;;;;5020737;28;20487;-59
2022/07/17 06:21:45;;;;;;;1999.90;999.90;;;;;;;;;;5021464;28;20044;-59
2022/07/17 06:24:10;;;;;;;1999.90;999.90;;;;;;;;;;5026880;28;20495;-59
2022/07/17 06:26:35;;;;;;;1999.90;999.90;;;;;;;;;;5027953;28;20364;-59
2022/07/17 06:29:01;;;;;;;1999.90;999.90;;;;;;;;;;5028842;28;20036;-59
2022/07/17 06:31:26;;;;;;;1999.90;999.90;;;;;;;;;;5029031;28;20032;-59
2022/07/17 06:33:52;;;;;;;1999.90;999.90;;;;;;;;;;5028118;28;20073;-59
2022/07/17 06:36:17;;;;;;;1999.90;999.90;;;;;;;;;;5028305;28;20033;-59
2022/07/17 06:38:43;;;;;;;1999.90;999.90;;;;;;;;;;5027179;28;20043;-59
2022/07/17 06:41:08;;;;;;;1999.90;999.90;;;;;;;;;;5015650;28;20493;-59
2022/07/17 06:43:33;;;;;;;1999.90;999.90;;;;;;;;;;5015716;28;20048;-59
2022/07/17 06:45:59;;;;;;;1999.90;999.90;;;;;;;;;;5018633;28;20117;-59
2022/07/17 06:48:24;;;;;;;1999.90;999.90;;;;;;;;;;5018916;28;20033;-59
2022/07/17 06:50:49;;;;;;;1999.90;999.90;;;;;;;;;;5023988;28;20025;-59
2022/07/17 06:53:15;;;;;;;1999.90;999.90;;;;;;;;;;5015171;28;20383;-60
2022/07/17 06:55:41;;;;;;;1999.90;999.90;;;;;;;;;;5020219;28;20030;-59
2022/07/17 06:58:06;;;;;;;1999.90;999.90;;;;;;;;;;5019328;28;20022;-59
2022/07/17 07:00:32;;;;;;;1999.90;999.90;;;;;;;;;;5027784;28;20029;-59
2022/07/17 07:02:58;;;;;;;1999.90;999.90;;;;;;;;;;5026393;28;20205;-59
2022/07/17 07:05:23;;;;;;;1999.90;999.90;;;;;;;;;;5025803;28;20395;-60
2022/07/17 07:07:48;;;;;;;1999.90;999.90;;;;;;;;;;5020705;28;20028;-59
2022/07/17 07:10:14;;;;;;;1999.90;999.90;;;;;;;;;;5025749;28;20057;-59
2022/07/17 07:12:39;;;;;;;1999.90;999.90;;;;;;;;;;5028576;28;20040;-59
2022/07/17 07:15:05;;;;;;;1999.90;999.90;;;;;;;;;;5029911;28;20055;-59
2022/07/17 07:17:33;;;;;;;1999.90;999.90;;;;;;;;;;5028082;28;20056;-59
2022/07/17 07:19:59;;;;;;;1999.90;999.90;;;;;;;;;;5025746;28;20395;-59
2022/07/17 07:22:24;;;;;;;1999.90;999.90;;;;;;;;;;5028334;28;20023;-59
2022/07/17 07:24:49;;;;;;;50.10;12.02;;;;;;;;;;5025205;28;20037;-59
2022/07/17 07:27:15;;;;;;;426.50;67.20;;;;;;;;;;5028161;28;20099;-59
2022/07/17 07:29:40;;;;;;;98.75;50.33;;;;;;;;;;5025840;28;20112;-59
2022/07/17 07:32:06;;;;;;;181.25;21.55;;;;;;;;;;5027763;28;20041;-60
2022/07/17 07:34:31;;;;;;;7.45;4.32;;;;;;;;;;5025319;28;20040;-60
2022/07/17 07:36:57;;;;;;;10.65;5.22;;;;;;;;;;5025881;28;20047;-60
2022/07/17 07:39:22;;;;;;;8.88;4.60;;;;;;;;;;5027870;28;20280;-60
2022/07/17 07:41:48;;;;;;;6.93;5.18;;;;;;;;;;5026611;28;20091;-60
2022/07/17 07:44:13;;;;;;;6.78;4.63;;;;;;;;;;5023685;28;20033;-60
2022/07/17 07:46:39;;;;;;;6.57;4.25;;;;;;;;;;5027848;28;20408;-60
2022/07/17 07:49:04;;;;;;;5.63;4.18;;;;;;;;;;5022816;28;20034;-61
2022/07/17 07:51:30;;;;;;;5.55;4.28;;;;;;;;;;5023289;28;20021;-57
2022/07/17 07:53:55;;;;;;;7.80;4.43;;;;;;;;;;5029698;28;20025;-56
2022/07/17 07:56:20;;;;;;;6.85;4.55;;;;;;;;;;5023524;28;20059;-57
2022/07/17 07:58:46;;;;;;;7.75;5.18;;;;;;;;;;5024660;28;20514;-56
2022/07/17 08:01:11;;;;;;;6.82;4.45;;;;;;;;;;5023582;28;20434;-55
2022/07/17 08:03:37;;;;;;;5.22;4.63;;;;;;;;;;5024846;28;20080;-55
2022/07/17 08:06:02;;;;;;;5.95;4.95;;;;;;;;;;5025181;28;20102;-52
2022/07/17 08:08:27;;;;;;;8.00;4.72;;;;;;;;;;5022607;28;20090;-52
2022/07/17 08:10:53;;;;;;;5.05;4.15;;;;;;;;;;5020931;28;20089;-55
2022/07/17 08:13:19;;;;;;;5.60;4.22;;;;;;;;;;5024288;28;20490;-56
2022/07/17 08:15:44;;;;;;;5.35;4.82;;;;;;;;;;5023629;28;20033;-57
2022/07/17 08:18:10;;;;;;;4.65;4.00;;;;;;;;;;5020298;28;20041;-57
2022/07/17 08:20:35;;;;;;;10.18;5.10;;;;;;;;;;5024092;28;20235;-57
2022/07/17 08:23:01;;;;;;;4.75;4.10;;;;;;;;;;5025089;28;20032;-57
2022/07/17 08:25:26;;;;;;;6.93;4.65;;;;;;;;;;5024781;28;20598;-58
2022/07/17 08:27:52;;;;;;;5.03;4.43;;;;;;;;;;5023656;28;20033;-58
2022/07/17 08:30:17;;;;;;;6.30;5.35;;;;;;;;;;5027485;28;20108;-58
2022/07/17 08:32:43;;;;;;;6.40;5.00;;;;;;;;;;5024430;28;20399;-58
2022/07/17 08:35:09;;;;;;;15.95;5.80;;;;;;;;;;5025595;28;20041;-58
2022/07/17 08:37:48;;;;;;;7.57;5.20;;;;;;;;;;5025866;28;20030;-58
2022/07/17 08:40:22;;;;;;;8.77;4.97;;;;;;;;;;5023606;28;20246;-57
2022/07/17 08:42:48;;;;;;;5.60;4.80;;;;;;;;;;5027106;28;20029;-58
2022/07/17 08:45:14;;;;;;;6.28;4.90;;;;;;;;;;5024508;28;20033;-56
2022/07/17 08:47:40;;;;;;;6.60;5.90;;;;;;;;;;5023183;28;20026;-58
2022/07/17 08:50:06;;;;;;;9.25;5.38;;;;;;;;;;5024553;28;20506;-58
2022/07/17 08:52:32;;;;;;;5.55;5.03;;;;;;;;;;5023795;28;20037;-57
2022/07/17 08:54:57;;;;;;;1999.90;999.90;;;;;;;;;;5024232;28;20025;-57
2022/07/17 08:57:23;;;;;;;1999.90;999.90;;;;;;;;;;5023160;28;20022;-57
2022/07/17 08:59:48;;;;;;;1999.90;999.90;;;;;;;;;;5021068;28;20081;-56
2022/07/17 09:02:13;;;;;;;1999.90;999.90;;;;;;;;;;5024769;28;20083;-57
2022/07/17 09:04:40;;;;;;;1999.90;999.90;;;;;;;;;;5029212;28;20029;-56
2022/07/17 09:07:05;;;;;;;1999.90;999.90;;;;;;;;;;5027685;28;20021;-56
2022/07/17 09:09:33;;;;;;;1999.90;999.90;;;;;;;;;;5024849;28;20022;-56
2022/07/17 09:12:00;;;;;;;1999.90;999.90;;;;;;;;;;5023619;28;20022;-57
2022/07/17 09:14:40;;;;;;;1999.90;999.90;;;;;;;;;;5028489;28;20037;-58
2022/07/17 09:17:07;;;;;;;1500.55;750.50;;;;;;;;;;5023230;28;20571;-58
2022/07/17 09:19:39;;;;;;;136.32;107.60;;;;;;;;;;5022425;28;20465;-57
2022/07/17 09:22:05;;;;;;;5.00;4.35;;;;;;;;;;5020762;28;20520;-58
2022/07/17 09:24:46;;;;;;;5.05;4.65;;;;;;;;;;5023149;28;20124;-58
2022/07/17 09:27:17;;;;;;;45.78;19.15;;;;;;;;;;5024287;28;20479;-58
2022/07/17 09:29:55;;;;;;;4.10;3.80;;;;;;;;;;5023202;28;20038;-57
2022/07/17 09:32:23;;;;;;;4.80;4.20;;;;;;;;;;5023006;28;20032;-58
2022/07/17 09:34:49;;;;;;;3.97;3.58;;;;;;;;;;5024163;28;20124;-58
2022/07/17 09:37:15;;;;;;;4.60;3.60;;;;;;;;;;5026602;28;20344;-57
2022/07/17 09:39:41;;;;;;;5.15;3.75;;;;;;;;;;5023599;28;20107;-57
2022/07/17 09:42:07;;;;;;;4.82;4.15;;;;;;;;;;5024260;28;20064;-57
2022/07/17 09:44:32;;;;;;;4.20;3.85;;;;;;;;;;5027401;28;20061;-58
2022/07/17 09:47:00;;;;;;;3.80;3.47;;;;;;;;;;5025316;28;20032;-58
2022/07/17 09:49:27;;;;;;;648.67;266.52;;;;;;;;;;5023040;28;20394;-57
2022/07/17 09:51:53;;;;;;;5.40;4.40;;;;;;;;;;5021665;28;20087;-57
2022/07/17 09:54:22;;;;;;;5.53;4.78;;;;;;;;;;5025073;28;20029;-57
2022/07/17 09:56:50;;;;;;;6.55;4.07;;;;;;;;;;5018617;28;20042;-57
2022/07/17 09:59:17;;;;;;;4.95;4.18;;;;;;;;;;5019613;28;20034;-57
2022/07/17 10:01:44;;;;;;;5.32;4.20;;;;;;;;;;5026268;28;20521;-57
2022/07/17 10:04:10;;;;;;;5.07;4.20;;;;;;;;;;5025863;28;20519;-57
2022/07/17 10:06:36;;;;;;;6.30;3.95;;;;;;;;;;5022663;28;20059;-57
2022/07/17 10:09:03;;;;;;;4.75;4.20;;;;;;;;;;5023179;28;20100;-58
2022/07/17 10:11:32;;;;;;;5.80;3.78;;;;;;;;;;5029803;28;20025;-57
2022/07/17 10:14:05;;;;;;;;;;;;;;;;;;5032191;28;20072;-57
2022/07/17 10:16:32;;;;;;;5.15;4.07;;;;;;;;;;5029888;28;20375;-57
2022/07/17 10:19:00;;;;;;;5.72;4.32;;;;;;;;;;5030359;28;20123;-57
2022/07/17 10:21:28;;;;;;;7.47;4.20;;;;;;;;;;5028004;28;20076;-57
2022/07/17 10:23:53;;;;;;;5.63;5.10;;;;;;;;;;5029695;28;20053;-57
2022/07/17 10:26:54;;;;;;;7.18;4.55;;;;;;;;;;5025531;28;20064;-57
2022/07/17 10:29:31;;;;;;;7.35;5.80;;;;;;;;;;5015062;28;20139;-57
2022/07/17 10:31:57;;;;;;;6.97;4.47;;;;;;;;;;5029052;28;20127;-57
2022/07/17 10:34:52;;;;;;;4.63;4.03;;;;;;;;;;5024991;28;20369;-58
2022/07/17 10:37:25;;;;;;;4.10;3.55;;;;;;;;;;5027999;28;20029;-57
2022/07/17 10:40:11;;;;;;;6.15;3.90;;;;;;;;;;5024071;28;20026;-58
2022/07/17 10:43:01;;;;;;;5.20;3.80;;;;;;;;;;5027265;28;20091;-58
2022/07/17 10:45:39;;;;;;;5.05;3.80;;;;;;;;;;5025418;28;20072;-58
2022/07/17 10:48:07;;;;;;;9.48;3.38;;;;;;;;;;5021245;28;20053;-57
2022/07/17 10:50:46;;;;;;;5.88;3.92;;;;;;;;;;5029423;28;20045;-57
2022/07/17 10:53:18;;;;;;;5.18;3.50;;;;;;;;;;5024865;28;20029;-58
2022/07/17 10:55:46;;;;;;;3.83;3.45;;;;;;;;;;5023876;28;20129;-58
2022/07/17 10:58:20;;;;;;;5.27;3.23;;;;;;;;;;5025176;28;20204;-57
2022/07/17 11:01:22;;;;;;;4.35;3.38;;;;;;;;;;5026257;28;20029;-57
2022/07/17 11:03:56;;;;;;;5.07;3.33;;;;;;;;;;5020735;28;20028;-58
2022/07/17 11:06:21;;;;;;;5.55;3.92;;;;;;;;;;5027257;28;20045;-59
2022/07/17 11:08:50;;;;;;;4.85;3.10;;;;;;;;;;5024412;28;20143;-56
2022/07/17 11:11:17;;;;;;;4.03;3.63;;;;;;;;;;5025287;28;20303;-57
2022/07/17 11:13:43;;;;;;;202.30;17.95;;;;;;;;;;5029714;28;20029;-57
2022/07/17 11:16:09;;;;;;;3.45;3.15;;;;;;;;;;5029065;28;20036;-58
2022/07/17 11:18:36;;;;;;;8.52;3.33;;;;;;;;;;5028205;28;20455;-58
2022/07/17 11:21:02;;;;;;;5.03;3.85;;;;;;;;;;5025970;28;20033;-58
2022/07/17 11:23:31;;;;;;;5.10;3.97;;;;;;;;;;5028547;28;20360;-58
2022/07/17 11:25:57;;;;;;;5.57;4.03;;;;;;;;;;5027480;28;20076;-58
2022/07/17 11:28:44;;;;;;;5.47;4.97;;;;;;;;;;5026643;28;20507;-58
2022/07/17 11:31:21;;;;;;;9.88;6.63;;;;;;;;;;5025013;28;20040;-58
2022/07/17 11:33:53;;;;;;;8.77;6.80;;;;;;;;;;5028866;28;20030;-58
2022/07/17 11:36:33;;;;;;;4.82;3.58;;;;;;;;;;5024443;28;20025;-58
2022/07/17 11:39:01;;;;;;;7.03;4.13;;;;;;;;;;5027568;28;20472;-58
2022/07/17 11:41:52;;;;;;;5.68;4.57;;;;;;;;;;5027902;28;20044;-58
2022/07/17 11:44:20;;;;;;;3.75;3.10;;;;;;;;;;5026549;28;20543;-59
2022/07/17 11:46:49;;;;;;;5.05;2.90;;;;;;;;;;5023069;28;20107;-57
2022/07/17 11:49:29;;;;;;;4.53;2.85;;;;;;;;;;5025745;28;20112;-57
2022/07/17 11:52:07;;;;;;;5.95;3.28;;;;;;;;;;5027916;28;20368;-57
2022/07/17 11:54:32;;;;;;;3.55;3.10;;;;;;;;;;5023195;28;20069;-57
2022/07/17 11:56:58;;;;;;;3.33;3.03;;;;;;;;;;5020332;28;20029;-57
2022/07/17 11:59:30;;;;;;;3.20;2.90;;;;;;;;;;5024472;28;20439;-57
2022/07/17 12:01:55;;;;;;;7.45;3.33;;;;;;;;;;5022363;28;20053;-58
2022/07/17 12:04:21;;;;;;;4.88;2.95;;;;;;;;;;5025739;28;20106;-58
2022/07/17 12:07:00;;;;;;;3.72;2.90;;;;;;;;;;5025513;28;20499;-57
2022/07/17 12:09:33;;;;;;;3.28;2.90;;;;;;;;;;5028830;28;20036;-57
2022/07/17 12:11:59;;;;;;;6.57;2.70;;;;;;;;;;5024913;28;20355;-57
2022/07/17 12:14:25;;;;;;;3.15;2.80;;;;;;;;;;5025279;28;20116;-57
2022/07/17 12:16:51;;;;;;;3.38;2.78;;;;;;;;;;5028458;28;20095;-58
2022/07/17 12:19:19;;;;;;;3.03;2.70;;;;;;;;;;5026548;28;20037;-58
2022/07/17 12:22:04;;;;;;;4.25;2.88;;;;;;;;;;5021781;28;20387;-58
2022/07/17 12:24:39;;;;;;;7.63;3.53;;;;;;;;;;5026968;28;20033;-59
2022/07/17 12:27:07;;;;;;;3.67;3.00;;;;;;;;;;5030659;28;20022;-58
2022/07/17 12:29:33;;;;;;;3.55;2.85;;;;;;;;;;5026192;28;20028;-58
2022/07/17 12:32:12;;;;;;;3.63;2.80;;;;;;;;;;5022725;28;20057;-58
2022/07/17 12:34:47;;;;;;;4.20;2.88;;;;;;;;;;5026187;28;20053;-58
2022/07/17 12:37:14;;;;;;;5.22;3.15;;;;;;;;;;5029861;28;20043;-58
2022/07/17 12:39:39;;;;;;;3.33;3.00;;;;;;;;;;5025199;28;20033;-58
2022/07/17 12:42:05;;;;;;;4.18;3.10;;;;;;;;;;5023668;28;20030;-58
2022/07/17 12:44:30;;;;;;;3.70;2.83;;;;;;;;;;5023370;28;20410;-58
2022/07/17 12:46:56;;;;;;;3.08;2.67;;;;;;;;;;5026691;28;20472;-57
2022/07/17 12:49:23;;;;;;;3.03;2.72;;;;;;;;;;5026319;28;20873;-58
2022/07/17 12:51:49;;;;;;;5.68;3.35;;;;;;;;;;5025313;28;20096;-58
2022/07/17 12:54:14;;;;;;;3.80;2.80;;;;;;;;;;5025408;28;20434;-57
2022/07/17 12:56:40;;;;;;;4.45;2.90;;;;;;;;;;5026399;28;20041;-58
2022/07/17 12:59:05;;;;;;;4.68;2.72;;;;;;;;;;5026798;28;20029;-58
2022/07/17 13:01:31;;;;;;;4.40;2.72;;;;;;;;;;5021889;28;20029;-58
2022/07/17 13:03:56;;;;;;;6.07;2.67;;;;;;;;;;5018610;28;20033;-58
2022/07/17 13:06:21;;;;;;;4.40;3.10;;;;;;;;;;5019132;28;20037;-58
2022/07/17 13:08:47;;;;;;;4.13;3.28;;;;;;;;;;5027680;28;20033;-58
2022/07/17 13:11:12;;;;;;;4.45;3.03;;;;;;;;;;5026325;28;20033;-58
2022/07/17 13:13:38;;;;;;;3.22;2.92;;;;;;;;;;5027495;28;20079;-57
2022/07/17 13:16:04;;;;;;;3.17;2.75;;;;;;;;;;5027323;28;20025;-58
2022/07/17 13:18:29;;;;;;;4.57;2.83;;;;;;;;;;5024564;28;20037;-58
2022/07/17 13:20:55;;;;;;;3.17;2.88;;;;;;;;;;5026529;28;20471;-57
2022/07/17 13:23:20;;;;;;;3.70;2.70;;;;;;;;;;5024039;28;20022;-58
2022/07/17 13:25:46;;;;;;;3.40;2.85;;;;;;;;;;5025998;28;20025;-58
2022/07/17 13:28:14;;;;;;;6.90;3.10;;;;;;;;;;5024481;28;20482;-57
2022/07/17 13:30:39;;;;;;;;;;;;;;;;;;5026215;28;20124;-58
2022/07/17 13:33:05;;;;;;;5.63;3.20;;;;;;;;;;5023369;28;20031;-58
2022/07/17 13:35:31;;;;;;;3.15;2.80;;;;;;;;;;5025983;28;20550;-58
2022/07/17 13:37:56;;;;;;;3.13;2.80;;;;;;;;;;5025906;28;20187;-58
2022/07/17 13:40:28;;;;;;;3.67;2.90;;;;;;;;;;5030179;28;20171;-58
2022/07/17 13:42:53;;;;;;;3.13;2.55;;;;;;;;;;5026862;28;20107;-58
2022/07/17 13:45:19;;;;;;;3.83;2.80;;;;;;;;;;5028541;28;20486;-58
2022/07/17 13:47:44;;;;;;;3.10;2.60;;;;;;;;;;5027835;28;20029;-58
2022/07/17 13:50:09;;;;;;;3.60;2.47;;;;;;;;;;5024719;28;20087;-56
2022/07/17 13:52:38;;;;;;;3.38;2.42;;;;;;;;;;5023153;28;20028;-57
2022/07/17 13:55:04;;;;;;;;;;;;;;;;;;5024188;28;20037;-58
2022/07/17 13:57:29;;;;;;;3.30;2.60;;;;;;;;;;5025383;28;19928;-57
2022/07/17 13:59:56;;;;;;;2.80;2.50;;;;;;;;;;5024078;28;20030;-57
2022/07/17 14:02:22;;;;;;;4.60;2.55;;;;;;;;;;5026625;28;20028;-57
2022/07/17 14:04:47;;;;;;;4.50;2.55;;;;;;;;;;5026162;28;20018;-58
2022/07/17 14:07:14;;;;;;;5.55;3.03;;;;;;;;;;5030532;28;20523;-57
2022/07/17 14:09:40;;;;;;;2.90;2.60;;;;;;;;;;5031012;28;20373;-57
2022/07/17 14:12:06;;;;;;;3.67;2.60;;;;;;;;;;5029894;28;20110;-57
2022/07/17 14:14:31;;;;;;;3.28;2.80;;;;;;;;;;5030243;28;20025;-57
2022/07/17 14:16:57;;;;;;;3.20;2.90;;;;;;;;;;5030316;28;20083;-57
2022/07/17 14:19:22;;;;;;;3.55;2.50;;;;;;;;;;5028771;28;20030;-58
2022/07/17 14:21:48;;;;;;;6.28;2.60;;;;;;;;;;5029089;28;20021;-57
2022/07/17 14:24:13;;;;;;;2.83;2.30;;;;;;;;;;5026935;28;20120;-57